createdAt,value
2022-11-03T00:01:47.968Z,12.48
2022-11-03T00:04:17.739Z,7.90
2022-11-03T00:06:48.996Z,8.50
2022-11-03T00:09:17.677Z,9.75
2022-11-03T00:11:46.321Z,8.98
2022-11-03T00:14:14.996Z,11.20
2022-11-03T00:16:41.839Z,8.45
2022-11-03T00:19:09.995Z,14.70
2022-11-03T00:21:37.452Z,11.05
2022-11-03T00:24:05.112Z,12.60
2022-11-03T00:26:34.172Z,12.90
2022-11-03T00:29:06.158Z,23.65
2022-11-03T00:31:35.402Z,22.77
2022-11-03T00:34:05.316Z,24.08
2022-11-03T00:36:34.582Z,18.30
2022-11-03T00:39:02.280Z,18.62
2022-11-03T00:41:29.178Z,22.95
2022-11-03T00:43:56.026Z,19.67
2022-11-03T00:46:24.218Z,19.12
2022-11-03T00:48:51.633Z,16.55
2022-11-03T00:51:21.449Z,20.00
2022-11-03T00:53:53.992Z,15.50
2022-11-03T00:56:22.901Z,15.53
2022-11-03T00:58:51.450Z,12.32
2022-11-03T01:01:24.623Z,9.50
2022-11-03T01:04:13.531Z,12.27
2022-11-03T01:06:50.142Z,9.15
2022-11-03T01:09:29.585Z,8.27
2022-11-03T01:12:09.110Z,15.75
2022-11-03T01:14:49.151Z,12.80
2022-11-03T01:17:18.920Z,9.65
2022-11-03T01:19:46.322Z,9.40
2022-11-03T01:22:14.082Z,18.50
2022-11-03T01:24:42.060Z,11.25
2022-11-03T01:27:15.044Z,12.18
2022-11-03T01:29:41.997Z,10.13
2022-11-03T01:32:09.617Z,11.00
2022-11-03T01:34:36.969Z,9.57
2022-11-03T01:37:04.131Z,10.10
2022-11-03T01:39:30.877Z,12.23
2022-11-03T01:41:57.760Z,10.05
2022-11-03T01:44:26.058Z,10.32
2022-11-03T01:47:02.332Z,14.20
2022-11-03T01:49:35.405Z,10.65
2022-11-03T01:52:08.391Z,14.23
2022-11-03T01:54:38.073Z,12.75
2022-11-03T01:57:13.676Z,11.02
2022-11-03T01:59:43.075Z,14.60
2022-11-03T02:02:09.972Z,12.37
2022-11-03T02:04:37.222Z,11.07
2022-11-03T02:07:33.966Z,8.77
2022-11-03T02:10:01.501Z,12.20
2022-11-03T02:12:28.900Z,8.27
2022-11-03T02:15:06.393Z,9.20
2022-11-03T02:17:34.453Z,10.27
2022-11-03T02:20:11.228Z,11.45
2022-11-03T02:23:05.056Z,11.65
2022-11-03T02:25:40.743Z,16.20
2022-11-03T02:28:08.105Z,12.10
2022-11-03T02:30:57.875Z,14.40
2022-11-03T02:33:38.996Z,12.93
2022-11-03T02:36:16.115Z,12.27
2022-11-03T02:39:02.283Z,10.23
2022-11-03T02:41:33.384Z,15.20
2022-11-03T02:44:02.835Z,14.70
2022-11-03T02:46:31.780Z,10.30
2022-11-03T02:48:58.892Z,11.30
2022-11-03T02:51:25.998Z,14.03
2022-11-03T02:54:14.394Z,13.32
2022-11-03T02:56:52.217Z,11.18
2022-11-03T02:59:28.291Z,10.13
2022-11-03T03:02:09.390Z,9.32
2022-11-03T03:04:55.540Z,12.83
2022-11-03T03:07:27.657Z,10.50
2022-11-03T03:10:06.816Z,10.30
2022-11-03T03:12:37.067Z,10.88
2022-11-03T03:15:07.196Z,10.90
2022-11-03T03:18:15.535Z,9.67
2022-11-03T03:20:55.022Z,11.18
2022-11-03T03:23:29.994Z,10.50
2022-11-03T03:26:12.684Z,9.95
2022-11-03T03:29:14.493Z,9.13
2022-11-03T03:31:47.452Z,9.77
2022-11-03T03:34:33.981Z,12.35
2022-11-03T03:37:02.960Z,9.45
2022-11-03T03:39:34.359Z,11.20
2022-11-03T03:42:03.246Z,10.45
2022-11-03T03:44:32.689Z,10.10
2022-11-03T03:47:03.531Z,10.10
2022-11-03T03:49:32.007Z,11.48
2022-11-03T03:51:59.557Z,9.40
2022-11-03T03:54:26.365Z,11.43
2022-11-03T03:57:02.982Z,9.33
2022-11-03T03:59:30.276Z,13.32
2022-11-03T04:01:57.749Z,10.23
2022-11-03T04:04:25.308Z,9.07
2022-11-03T04:07:12.070Z,10.95
2022-11-03T04:09:38.979Z,7.77
2022-11-03T04:12:25.093Z,9.60
2022-11-03T04:15:10.570Z,8.98
2022-11-03T04:18:00.891Z,9.27
2022-11-03T04:20:46.111Z,10.65
2022-11-03T04:23:12.930Z,12.30
2022-11-03T04:25:40.117Z,10.43
2022-11-03T04:28:14.746Z,9.50
2022-11-03T04:30:42.362Z,7.35
2022-11-03T04:33:17.918Z,9.07
2022-11-03T04:35:46.304Z,9.83
2022-11-03T04:38:16.171Z,11.07
2022-11-03T04:40:47.114Z,10.02
2022-11-03T04:43:20.377Z,7.37
2022-11-03T04:45:48.578Z,12.68
2022-11-03T04:48:21.178Z,14.57
2022-11-03T04:50:50.401Z,11.50
2022-11-03T04:53:18.559Z,10.55
2022-11-03T04:55:47.293Z,7.78
2022-11-03T04:58:21.511Z,10.63
2022-11-03T05:00:54.171Z,10.43
2022-11-03T05:03:25.279Z,9.52
2022-11-03T05:05:52.262Z,9.80
2022-11-03T05:08:20.298Z,9.35
2022-11-03T05:10:48.082Z,10.57
2022-11-03T05:13:23.916Z,10.33
2022-11-03T05:15:54.589Z,10.32
2022-11-03T05:18:35.351Z,12.73
2022-11-03T05:21:09.341Z,10.48
2022-11-03T05:23:40.063Z,15.52
2022-11-03T05:26:14.603Z,11.70
2022-11-03T05:28:44.814Z,13.23
2022-11-03T05:31:22.308Z,14.63
2022-11-03T05:33:51.293Z,13.32
2022-11-03T05:36:24.428Z,13.38
2022-11-03T05:38:58.701Z,8.73
2022-11-03T05:41:29.231Z,9.25
2022-11-03T05:43:59.972Z,9.10
2022-11-03T05:46:33.287Z,15.85
2022-11-03T05:49:03.886Z,23.30
2022-11-03T05:51:37.974Z,22.60
2022-11-03T05:54:09.263Z,16.02
2022-11-03T05:56:36.068Z,13.20
2022-11-03T05:59:04.999Z,10.75
2022-11-03T06:01:35.620Z,10.60
2022-11-03T06:04:24.268Z,11.00
2022-11-03T06:06:54.297Z,13.40
2022-11-03T06:09:25.376Z,13.43
2022-11-03T06:11:58.782Z,6.70
2022-11-03T06:14:28.369Z,11.45
2022-11-03T06:17:07.373Z,10.87
2022-11-03T06:19:39.824Z,10.13
2022-11-03T06:22:20.863Z,10.98
2022-11-03T06:24:47.835Z,13.73
2022-11-03T06:27:17.169Z,6.57
2022-11-03T06:29:52.515Z,11.40
2022-11-03T06:32:19.370Z,17.77
2022-11-03T06:34:49.017Z,8.55
2022-11-03T06:37:23.559Z,10.23
2022-11-03T06:39:51.780Z,9.77
2022-11-03T06:42:21.601Z,11.80
2022-11-03T06:44:50.604Z,11.40
2022-11-03T06:47:21.053Z,11.88
2022-11-03T06:49:48.730Z,11.70
2022-11-03T06:52:33.882Z,16.42
2022-11-03T06:55:16.703Z,14.63
2022-11-03T06:57:47.169Z,12.18
2022-11-03T07:00:34.723Z,11.85
2022-11-03T07:03:18.229Z,14.50
2022-11-03T07:05:45.373Z,12.75
2022-11-03T07:08:25.275Z,14.43
2022-11-03T07:11:04.084Z,12.10
2022-11-03T07:13:34.616Z,8.52
2022-11-03T07:16:01.746Z,8.95
2022-11-03T07:18:35.361Z,6.78
2022-11-03T07:21:19.826Z,9.37
2022-11-03T07:23:47.379Z,5.72
2022-11-03T07:26:14.269Z,8.32
2022-11-03T07:28:41.448Z,7.75
2022-11-03T07:31:23.273Z,6.97
2022-11-03T07:33:55.693Z,10.10
2022-11-03T07:36:24.545Z,6.18
2022-11-03T07:38:53.559Z,5.68
2022-11-03T07:41:26.951Z,7.43
2022-11-03T07:43:59.196Z,6.45
2022-11-03T07:46:27.183Z,8.07
2022-11-03T07:49:01.344Z,5.12
2022-11-03T07:51:40.796Z,7.05
2022-11-03T07:54:18.697Z,8.68
2022-11-03T07:56:52.908Z,7.70
2022-11-03T07:59:29.153Z,6.73
2022-11-03T08:01:57.811Z,7.25
2022-11-03T08:04:30.610Z,8.10
2022-11-03T08:06:57.470Z,9.45
2022-11-03T08:09:24.346Z,8.57
2022-11-03T08:11:51.679Z,7.50
2022-11-03T08:14:18.582Z,7.80
2022-11-03T08:16:46.258Z,8.43
2022-11-03T08:19:13.124Z,9.43
2022-11-03T08:21:40.004Z,11.68
2022-11-03T08:24:07.077Z,13.00
2022-11-03T08:26:33.930Z,18.73
2022-11-03T08:29:00.722Z,15.52
2022-11-03T08:31:28.402Z,16.80
2022-11-03T08:33:55.692Z,17.33
2022-11-03T08:36:22.740Z,19.37
2022-11-03T08:38:49.576Z,16.02
2022-11-03T08:41:25.349Z,19.85
2022-11-03T08:43:52.199Z,18.75
2022-11-03T08:46:19.025Z,18.58
2022-11-03T08:48:46.559Z,20.13
2022-11-03T08:51:14.882Z,20.58
2022-11-03T08:53:42.878Z,22.50
2022-11-03T08:56:12.835Z,21.50
2022-11-03T08:58:45.291Z,24.05
2022-11-03T09:01:12.885Z,20.73
2022-11-03T09:03:40.621Z,18.27
2022-11-03T09:06:08.424Z,24.05
2022-11-03T09:11:22.129Z,24.10
2022-11-03T09:13:48.993Z,22.20
2022-11-03T09:16:16.127Z,22.15
2022-11-03T09:18:42.967Z,24.20
2022-11-03T09:21:10.187Z,30.25
2022-11-03T09:23:37.062Z,29.75
2022-11-03T09:26:05.849Z,30.70
2022-11-03T09:28:33.095Z,29.52
2022-11-03T09:30:59.936Z,29.75
2022-11-03T09:33:26.943Z,30.10
2022-11-03T09:35:53.904Z,29.70
2022-11-03T09:38:20.808Z,27.27
2022-11-03T09:43:19.692Z,34.03
2022-11-03T09:45:46.683Z,31.55
2022-11-03T09:48:13.990Z,32.00
2022-11-03T09:50:41.314Z,29.43
2022-11-03T09:53:12.570Z,30.60
2022-11-03T09:55:39.968Z,30.77
2022-11-03T09:58:24.600Z,33.13
2022-11-03T10:00:51.507Z,30.15
2022-11-03T10:03:20.457Z,31.37
2022-11-03T10:05:48.264Z,31.20
2022-11-03T10:08:24.279Z,32.30
2022-11-03T10:10:52.160Z,31.85
2022-11-03T10:13:50.428Z,32.95
2022-11-03T10:16:23.205Z,33.10
2022-11-03T10:18:50.439Z,33.42
2022-11-03T10:21:36.109Z,36.75
2022-11-03T10:24:02.902Z,32.70
2022-11-03T10:26:35.710Z,30.95
2022-11-03T10:29:05.494Z,33.97
2022-11-03T10:31:35.404Z,33.97
2022-11-03T10:34:02.871Z,38.30
2022-11-03T10:36:33.404Z,32.20
2022-11-03T10:39:25.689Z,32.03
2022-11-03T10:42:00.174Z,31.00
2022-11-03T10:44:28.840Z,30.35
2022-11-03T10:47:01.563Z,31.92
2022-11-03T10:49:31.170Z,36.90
2022-11-03T10:52:30.591Z,32.55
2022-11-03T10:54:59.402Z,32.30
2022-11-03T10:57:27.915Z,33.47
2022-11-03T10:59:55.520Z,30.12
2022-11-03T11:02:25.669Z,27.17
2022-11-03T11:05:01.460Z,35.95
2022-11-03T11:07:33.953Z,33.17
2022-11-03T11:10:13.155Z,36.55
2022-11-03T11:13:15.101Z,29.23
2022-11-03T11:15:49.004Z,27.23
2022-11-03T11:18:39.059Z,34.03
2022-11-03T11:21:21.150Z,33.23
2022-11-03T11:23:49.340Z,30.08
2022-11-03T11:26:25.016Z,30.88
2022-11-03T11:29:10.345Z,30.30
2022-11-03T11:31:38.597Z,31.85
2022-11-03T11:34:18.322Z,34.83
2022-11-03T11:37:10.971Z,28.27
2022-11-03T11:39:44.352Z,30.10
2022-11-03T11:42:17.556Z,30.25
2022-11-03T11:44:45.920Z,30.02
2022-11-03T11:47:26.687Z,33.47
2022-11-03T11:50:07.537Z,35.25
2022-11-03T11:52:41.823Z,30.52
2022-11-03T11:55:42.644Z,33.53
2022-11-03T11:58:31.776Z,30.08
2022-11-03T12:01:03.755Z,35.40
2022-11-03T12:03:35.857Z,33.70
2022-11-03T12:06:05.764Z,35.55
2022-11-03T12:08:33.040Z,31.85
2022-11-03T12:11:05.398Z,36.80
2022-11-03T12:13:48.639Z,36.33
2022-11-03T12:16:34.888Z,33.55
2022-11-03T12:19:35.972Z,38.90
2022-11-03T12:22:05.330Z,31.80
2022-11-03T12:24:32.316Z,34.05
2022-11-03T12:27:00.529Z,31.40
2022-11-03T12:29:27.473Z,32.20
2022-11-03T12:31:54.474Z,37.55
2022-11-03T12:34:21.393Z,36.40
2022-11-03T12:36:53.151Z,32.88
2022-11-03T12:39:22.708Z,33.73
2022-11-03T12:41:49.616Z,34.28
2022-11-03T12:44:17.411Z,34.60
2022-11-03T12:46:44.261Z,32.65
2022-11-03T12:49:11.186Z,35.25
2022-11-03T12:51:38.883Z,36.07
2022-11-03T12:54:05.710Z,33.95
2022-11-03T12:56:32.478Z,34.65
2022-11-03T12:58:59.280Z,33.45
2022-11-03T13:01:27.159Z,37.90
2022-11-03T13:03:54.192Z,32.73
2022-11-03T13:06:21.204Z,32.72
2022-11-03T13:08:53.075Z,34.15
2022-11-03T13:11:38.780Z,35.63
2022-11-03T13:14:06.001Z,32.33
2022-11-03T13:16:33.405Z,36.83
2022-11-03T13:19:00.292Z,38.08
2022-11-03T13:21:27.145Z,41.80
2022-11-03T13:23:53.981Z,37.58
2022-11-03T13:26:20.902Z,36.10
2022-11-03T13:28:48.032Z,36.53
2022-11-03T13:31:15.411Z,36.55
2022-11-03T13:33:42.222Z,39.85
2022-11-03T13:36:09.105Z,32.53
2022-11-03T13:38:36.158Z,33.05
2022-11-03T13:41:08.500Z,29.03
2022-11-03T13:43:36.370Z,30.80
2022-11-03T13:46:05.023Z,31.33
2022-11-03T13:51:19.249Z,33.20
2022-11-03T13:59:27.981Z,26.05
2022-11-03T14:04:43.460Z,29.08
2022-11-03T14:07:10.964Z,25.07
2022-11-03T14:12:28.034Z,28.38
2022-11-03T14:14:54.850Z,32.17
2022-11-03T14:17:21.690Z,30.52
2022-11-03T14:19:52.813Z,31.33
2022-11-03T14:22:21.270Z,33.35
2022-11-03T14:24:48.781Z,29.83
2022-11-03T14:27:16.375Z,31.67
2022-11-03T14:29:50.096Z,27.92
2022-11-03T14:32:18.446Z,25.47
2022-11-03T14:34:46.147Z,29.05
2022-11-03T14:37:13.717Z,29.30
2022-11-03T14:39:41.959Z,25.88
2022-11-03T14:42:15.549Z,26.08
2022-11-03T14:44:49.028Z,27.63
2022-11-03T14:47:18.550Z,27.00
2022-11-03T14:49:46.656Z,28.40
2022-11-03T14:52:14.522Z,32.53
2022-11-03T14:54:41.879Z,32.45
2022-11-03T14:57:09.856Z,30.07
2022-11-03T14:59:36.859Z,28.98
2022-11-03T15:02:04.809Z,23.77
2022-11-03T15:04:31.971Z,29.40
2022-11-03T15:06:58.767Z,24.98
2022-11-03T15:09:25.764Z,23.17
2022-11-03T15:11:55.164Z,28.12
2022-11-03T15:14:22.048Z,24.25
2022-11-03T15:16:48.938Z,24.27
2022-11-03T15:19:15.866Z,19.83
2022-11-03T15:21:42.731Z,29.60
2022-11-03T15:26:56.578Z,28.77
2022-11-03T15:29:24.263Z,25.08
2022-11-03T15:31:51.248Z,25.42
2022-11-03T15:34:18.447Z,24.07
2022-11-03T15:36:45.809Z,21.50
2022-11-03T15:39:15.083Z,31.37
2022-11-03T15:41:42.638Z,32.25
2022-11-03T15:44:10.066Z,29.25
2022-11-03T15:46:37.406Z,35.07
2022-11-03T15:49:05.826Z,33.05
2022-11-03T15:51:32.738Z,34.63
2022-11-03T15:53:59.883Z,29.25
2022-11-03T15:56:27.694Z,26.37
2022-11-03T15:58:54.965Z,29.10
2022-11-03T16:01:22.254Z,26.73
2022-11-03T16:03:49.812Z,34.50
2022-11-03T16:06:19.090Z,31.85
2022-11-03T16:08:46.335Z,31.25
2022-11-03T16:11:14.284Z,31.57
2022-11-03T16:13:42.211Z,32.08
2022-11-03T16:16:10.374Z,31.23
2022-11-03T16:18:38.568Z,34.00
2022-11-03T16:21:06.443Z,33.70
2022-11-03T16:23:33.717Z,27.60
2022-11-03T16:26:04.627Z,39.78
2022-11-03T16:28:32.623Z,35.63
2022-11-03T16:31:00.321Z,36.00
2022-11-03T16:33:27.712Z,35.03
2022-11-03T16:35:54.928Z,37.80
2022-11-03T16:38:22.743Z,38.97
2022-11-03T16:40:50.265Z,33.75
2022-11-03T16:43:18.287Z,36.97
2022-11-03T16:45:45.964Z,46.40
2022-11-03T16:48:14.786Z,42.87
2022-11-03T16:50:45.053Z,39.58
2022-11-03T16:53:13.458Z,35.83
2022-11-03T16:55:41.077Z,34.30
2022-11-03T16:58:09.716Z,41.25
2022-11-03T17:00:39.774Z,35.57
2022-11-03T17:03:09.084Z,33.17
2022-11-03T17:05:37.582Z,37.25
2022-11-03T17:08:05.755Z,38.47
2022-11-03T17:10:33.863Z,43.90
2022-11-03T17:13:06.202Z,47.90
2022-11-03T17:15:37.333Z,41.97
2022-11-03T17:18:05.045Z,51.15
2022-11-03T17:20:33.442Z,37.97
2022-11-03T17:23:00.847Z,41.97
2022-11-03T17:25:29.564Z,43.27
2022-11-03T17:28:01.610Z,39.85
2022-11-03T17:30:34.578Z,41.47
2022-11-03T17:33:07.982Z,46.42
2022-11-03T17:35:40.414Z,42.72
2022-11-03T17:38:15.798Z,43.77
2022-11-03T17:40:48.348Z,47.33
2022-11-03T17:43:21.794Z,43.40
2022-11-03T17:45:50.213Z,49.60
2022-11-03T17:48:18.606Z,44.45
2022-11-03T17:50:49.533Z,43.50
2022-11-03T17:53:28.719Z,44.72
2022-11-03T17:58:47.857Z,42.55
2022-11-03T18:01:25.177Z,35.38
2022-11-03T18:03:55.058Z,37.30
2022-11-03T18:06:24.941Z,42.38
2022-11-03T18:08:59.579Z,37.55
2022-11-03T18:11:48.886Z,45.53
2022-11-03T18:14:22.463Z,50.55
2022-11-03T18:16:51.651Z,48.77
2022-11-03T18:19:19.936Z,44.35
2022-11-03T18:21:48.848Z,45.45
2022-11-03T18:24:19.648Z,39.78
2022-11-03T18:26:47.413Z,45.85
2022-11-03T18:29:15.688Z,43.53
2022-11-03T18:31:47.481Z,45.47
2022-11-03T18:34:26.062Z,45.17
2022-11-03T18:36:55.700Z,42.65
2022-11-03T18:39:26.864Z,45.97
2022-11-03T18:41:55.276Z,43.17
2022-11-03T18:44:28.587Z,43.90
2022-11-03T18:47:01.155Z,42.08
2022-11-03T18:49:30.972Z,40.12
2022-11-03T18:52:04.066Z,41.53
2022-11-03T18:54:35.612Z,42.73
2022-11-03T18:57:04.546Z,38.65
2022-11-03T18:59:37.266Z,40.55
2022-11-03T19:02:22.091Z,40.17
2022-11-03T19:04:50.040Z,39.63
2022-11-03T19:07:25.722Z,37.30
2022-11-03T19:09:53.978Z,42.58
2022-11-03T19:12:24.148Z,40.08
2022-11-03T19:14:52.489Z,43.92
2022-11-03T19:17:23.827Z,38.15
2022-11-03T19:19:53.730Z,40.70
2022-11-03T19:22:23.587Z,43.28
2022-11-03T19:24:51.522Z,46.22
2022-11-03T19:27:30.343Z,38.38
2022-11-03T19:29:59.762Z,44.63
2022-11-03T19:32:40.826Z,41.10
2022-11-03T19:35:20.943Z,41.70
2022-11-03T19:38:03.607Z,43.47
2022-11-03T19:40:33.185Z,48.42
2022-11-03T19:43:01.298Z,41.90
2022-11-03T19:45:29.456Z,47.23
2022-11-03T19:48:23.106Z,39.65
2022-11-03T19:50:49.460Z,43.10
2022-11-03T19:53:27.946Z,40.03
2022-11-03T19:55:56.462Z,44.00
2022-11-03T19:58:27.734Z,43.93
2022-11-03T20:00:56.904Z,39.83
2022-11-03T20:03:25.538Z,38.30
2022-11-03T20:05:58.390Z,41.65
2022-11-03T20:08:42.061Z,41.10
2022-11-03T20:11:23.568Z,44.00
2022-11-03T20:13:52.780Z,43.28
2022-11-03T20:16:22.039Z,46.88
2022-11-03T20:18:52.861Z,45.55
2022-11-03T20:21:23.570Z,45.55
2022-11-03T20:23:52.422Z,49.27
2022-11-03T20:26:25.490Z,43.92
2022-11-03T20:28:55.633Z,54.50
2022-11-03T20:31:24.695Z,39.83
2022-11-03T20:33:53.317Z,48.20
2022-11-03T20:36:23.677Z,44.00
2022-11-03T20:38:56.761Z,45.90
2022-11-03T20:41:26.349Z,45.60
2022-11-03T20:43:56.115Z,42.35
2022-11-03T20:46:28.855Z,42.47
2022-11-03T20:48:57.816Z,40.13
2022-11-03T20:51:31.958Z,40.88
2022-11-03T20:54:04.146Z,42.97
2022-11-03T20:56:31.731Z,40.28
2022-11-03T20:58:59.562Z,40.65
2022-11-03T21:01:39.019Z,41.53
2022-11-03T21:04:10.071Z,39.08
2022-11-03T21:06:37.623Z,39.13
2022-11-03T21:09:05.282Z,44.17
2022-11-03T21:11:39.798Z,34.55
2022-11-03T21:14:25.332Z,37.27
2022-11-03T21:17:11.731Z,43.70
2022-11-03T21:19:58.021Z,33.33
2022-11-03T21:22:53.287Z,37.28
2022-11-03T21:25:23.859Z,35.55
2022-11-03T21:27:51.800Z,39.90
2022-11-03T21:30:19.180Z,34.92
2022-11-03T21:32:47.949Z,35.13
2022-11-03T21:35:20.499Z,34.88
2022-11-03T21:37:48.170Z,31.75
2022-11-03T21:40:15.622Z,36.23
2022-11-03T21:43:01.157Z,33.45
2022-11-03T21:45:28.113Z,30.73
2022-11-03T21:48:14.741Z,40.38
2022-11-03T21:50:42.907Z,38.05
2022-11-03T21:53:11.076Z,31.57
2022-11-03T21:55:38.504Z,29.77
2022-11-03T21:58:05.660Z,35.65
2022-11-03T22:00:33.080Z,35.83
2022-11-03T22:03:00.746Z,36.35
2022-11-03T22:05:27.886Z,33.73
2022-11-03T22:07:54.780Z,33.53
2022-11-03T22:10:22.087Z,35.50
2022-11-03T22:12:49.264Z,39.25
2022-11-03T22:15:35.093Z,48.92
2022-11-03T22:18:07.148Z,47.47
2022-11-03T22:20:55.101Z,39.83
2022-11-03T22:23:40.671Z,39.78
2022-11-03T22:26:34.626Z,43.95
2022-11-03T22:29:20.479Z,43.30
2022-11-03T22:31:47.302Z,36.13
2022-11-03T22:34:33.346Z,39.40
2022-11-03T22:37:00.375Z,34.92
2022-11-03T22:39:45.975Z,33.28
2022-11-03T22:42:31.973Z,36.05
2022-11-03T22:45:17.504Z,68.23
2022-11-03T22:47:44.349Z,45.88
2022-11-03T22:50:11.236Z,39.60
2022-11-03T22:52:39.947Z,36.80
2022-11-03T22:55:07.023Z,34.30
2022-11-03T22:57:34.074Z,30.87
2022-11-03T23:00:05.719Z,31.20
2022-11-03T23:02:32.837Z,34.20
2022-11-03T23:04:59.698Z,33.83
2022-11-03T23:07:32.218Z,32.22
2022-11-03T23:10:04.628Z,34.20
2022-11-03T23:12:32.217Z,31.20
2022-11-03T23:15:17.621Z,36.72
2022-11-03T23:18:03.142Z,39.83
2022-11-03T23:20:59.410Z,37.85
2022-11-03T23:23:44.926Z,32.03
2022-11-03T23:26:11.891Z,39.20
2022-11-03T23:28:38.904Z,45.00
2022-11-03T23:31:06.314Z,63.17
2022-11-03T23:33:33.410Z,69.57
2022-11-03T23:36:10.951Z,48.57
2022-11-03T23:38:38.917Z,35.72
2022-11-03T23:41:12.141Z,36.97
2022-11-03T23:43:39.467Z,33.85
2022-11-03T23:46:25.436Z,33.58
2022-11-03T23:48:52.911Z,31.00
2022-11-03T23:51:21.993Z,34.70
2022-11-03T23:53:49.973Z,31.08
2022-11-03T23:56:38.210Z,31.83
2022-11-03T23:59:05.823Z,27.20
